Time;durP1;ratioP1;P1;durP2;ratioP2;P2;SDS_P1;SDS_P2;PMS_P1;PMS_P2;Temp;Humidity;BMP_temperature;BMP_pressure;BME280_temperature;BME280_humidity;BME280_pressure;Samples;Min_cycle;Max_cycle;Signal;HPM_P1;HPM_P2
2023/11/23 00:00:23;;;;;;;;;;;5.70;58.50;;;;;;5056637;28;19932;-71
2023/11/23 00:02:49;;;;;;;;;;;5.70;58.10;;;;;;5057449;28;19963;-73
2023/11/23 00:05:16;;;;;;;;;;;5.70;58.30;;;;;;5057360;28;19920;-75
2023/11/23 00:07:43;;;;;;;;;;;5.60;58.30;;;;;;5075216;28;19963;-76
2023/11/23 00:10:10;;;;;;;;;;;5.60;58.50;;;;;;5040068;28;19932;-72
2023/11/23 00:12:36;;;;;;;;;;;5.60;58.60;;;;;;5057158;28;19924;-76
2023/11/23 00:15:03;;;;;;;;;;;5.60;58.50;;;;;;5075285;28;19924;-74
2023/11/23 00:17:29;;;;;;;;;;;5.50;58.60;;;;;;5057177;28;20278;-72
2023/11/23 00:19:56;;;;;;;;;;;5.50;58.70;;;;;;5057124;28;19963;-72
2023/11/23 00:22:22;;;;;;;;;;;5.60;58.50;;;;;;5056384;28;20292;-71
2023/11/23 00:24:48;;;;;;;;;;;5.50;58.50;;;;;;5040495;28;19952;-71
2023/11/23 00:27:14;;;;;;;;;;;5.40;58.30;;;;;;5074735;28;19916;-74
2023/11/23 00:29:41;;;;;;;;;;;5.50;58.60;;;;;;5074820;28;19928;-72
2023/11/23 00:34:51;;;;;;;;;;;5.40;58.80;;;;;;5074871;28;19946;-72
2023/11/23 00:37:17;;;;;;;;;;;5.40;58.80;;;;;;5056891;28;19917;-72
2023/11/23 00:39:43;;;;;;;;;;;5.30;58.40;;;;;;5074640;28;20315;-72
2023/11/23 00:42:09;;;;;;;;;;;5.30;59.10;;;;;;5056171;28;19931;-76
2023/11/23 00:44:37;;;;;;;;;;;5.30;59.40;;;;;;5074591;28;19924;-75
2023/11/23 00:47:03;;;;;;;;;;;5.20;59.40;;;;;;5056432;28;19916;-72
2023/11/23 00:49:29;;;;;;;;;;;5.20;58.90;;;;;;5074206;28;20266;-76
2023/11/23 00:51:55;;;;;;;;;;;5.10;59.50;;;;;;5039362;28;19942;-76
2023/11/23 00:54:21;;;;;;;;;;;5.10;59.80;;;;;;5073536;28;20361;-72
2023/11/23 00:56:47;;;;;;;;;;;5.00;59.80;;;;;;5039905;28;19921;-76
2023/11/23 00:59:13;;;;;;;;;;;4.90;60.10;;;;;;5056168;28;19923;-72
2023/11/23 01:01:39;;;;;;;;;;;4.90;60.50;;;;;;5073558;28;20032;-76
2023/11/23 01:04:05;;;;;;;;;;;4.80;60.60;;;;;;5074003;28;19923;-75
2023/11/23 01:06:33;;;;;;;;;;;4.70;60.10;;;;;;5074038;28;19920;-72
2023/11/23 01:08:59;;;;;;;;;;;4.70;60.70;;;;;;5039965;28;19936;-72
2023/11/23 01:11:25;;;;;;;;;;;4.70;60.90;;;;;;5073374;28;20425;-71
2023/11/23 01:13:51;;;;;;;;;;;4.70;61.00;;;;;;5055908;28;20349;-76
2023/11/23 01:16:17;;;;;;;;;;;4.70;61.00;;;;;;5073728;28;19920;-74
2023/11/23 01:18:43;;;;;;;;;;;4.60;61.10;;;;;;5073624;28;20019;-76
2023/11/23 01:21:10;;;;;;;;;;;4.60;61.10;;;;;;5038534;28;19928;-72
2023/11/23 01:23:36;;;;;;;;;;;4.60;61.30;;;;;;5073629;28;19917;-72
2023/11/23 01:26:01;;;;;;;;;;;4.60;61.40;;;;;;5074037;28;19982;-76
2023/11/23 01:28:27;;;;;;;;;;;4.50;61.40;;;;;;5055449;28;19989;-72
2023/11/23 01:30:53;;;;;;;;;;;4.50;61.60;;;;;;5072924;28;20014;-76
2023/11/23 01:33:19;;;;;;;;;;;4.50;61.90;;;;;;5039091;28;19927;-75
2023/11/23 01:35:45;;;;;;;;;;;4.40;61.80;;;;;;5039244;28;19923;-76
2023/11/23 01:38:11;;;;;;;;;;;4.40;62.00;;;;;;5038854;28;20373;-72
2023/11/23 01:40:37;;;;;;;;;;;4.30;62.30;;;;;;5072674;28;19924;-71
2023/11/23 01:43:22;;;;;;;;;;;4.20;62.20;;;;;;5073187;28;19971;-72
2023/11/23 01:45:48;;;;;;;;;;;4.30;62.50;;;;;;5073720;28;19920;-71
2023/11/23 01:48:32;;;;;;;;;;;4.20;62.70;;;;;;5038804;28;19920;-72
2023/11/23 01:50:59;;;;;;;;;;;4.20;62.60;;;;;;5054423;28;19936;-74
2023/11/23 01:53:25;;;;;;;;;;;4.10;62.80;;;;;;5072850;28;19928;-72
2023/11/23 01:55:51;;;;;;;;;;;4.10;62.50;;;;;;5073571;28;19999;-75
2023/11/23 01:58:18;;;;;;;;;;;4.00;62.40;;;;;;5038692;28;20315;-76
2023/11/23 02:00:45;;;;;;;;;;;4.00;62.90;;;;;;5054476;28;19924;-72
2023/11/23 02:03:11;;;;;;;;;;;4.00;62.90;;;;;;5073052;28;19916;-72
2023/11/23 02:05:37;;;;;;;;;;;4.00;62.60;;;;;;5054365;28;20015;-75
2023/11/23 02:08:05;;;;;;;;;;;4.00;63.30;;;;;;5073015;28;20010;-76
2023/11/23 02:10:30;;;;;;;;;;;3.90;63.40;;;;;;5072199;28;19924;-72
2023/11/23 02:12:57;;;;;;;;;;;3.90;63.70;;;;;;5072889;28;19923;-72
2023/11/23 02:15:23;;;;;;;;;;;3.80;63.70;;;;;;5054992;28;19925;-76
2023/11/23 02:18:08;;;;;;;;;;;3.80;63.90;;;;;;5055037;28;19931;-75
2023/11/23 02:20:34;;;;;;;;;;;3.80;64.00;;;;;;5054003;28;19924;-72
2023/11/23 02:23:00;;;;;;;;;;;3.70;64.00;;;;;;5072796;28;19921;-75
2023/11/23 02:25:27;;;;;;;;;;;3.70;64.20;;;;;;5055076;28;19921;-71
2023/11/23 02:27:53;;;;;;;;;;;3.60;64.10;;;;;;5055042;28;19974;-75
2023/11/23 02:30:19;;;;;;;;;;;3.60;64.30;;;;;;5054182;28;19928;-72
2023/11/23 02:32:46;;;;;;;;;;;3.60;64.40;;;;;;5038096;28;19917;-75
2023/11/23 02:35:13;;;;;;;;;;;3.50;64.60;;;;;;5038397;28;20281;-74
2023/11/23 02:37:40;;;;;;;;;;;3.50;64.70;;;;;;5072912;28;19920;-72
2023/11/23 02:40:07;;;;;;;;;;;3.40;64.70;;;;;;5037631;28;19921;-72
2023/11/23 02:42:33;;;;;;;;;;;3.40;64.90;;;;;;5072463;28;20323;-72
2023/11/23 02:44:59;;;;;;;;;;;3.30;65.20;;;;;;5072901;28;20015;-72
2023/11/23 02:47:25;;;;;;;;;;;3.30;65.40;;;;;;5054662;28;20338;-71
2023/11/23 02:49:50;;;;;;;;;;;3.20;65.30;;;;;;5072634;28;20322;-76
2023/11/23 02:52:16;;;;;;;;;;;3.20;65.40;;;;;;5072082;28;20377;-72
2023/11/23 02:54:42;;;;;;;;;;;3.20;65.40;;;;;;5037989;28;19930;-76
2023/11/23 02:57:08;;;;;;;;;;;3.20;65.30;;;;;;5054665;28;19916;-71
2023/11/23 02:59:34;;;;;;;;;;;3.20;65.40;;;;;;5037957;28;19924;-72
2023/11/23 03:02:00;;;;;;;;;;;3.20;65.40;;;;;;5053920;28;20361;-75
2023/11/23 03:04:26;;;;;;;;;;;3.20;65.30;;;;;;5054458;28;19928;-75
2023/11/23 03:06:52;;;;;;;;;;;3.20;65.10;;;;;;5037911;28;20381;-72
2023/11/23 03:09:19;;;;;;;;;;;3.30;65.10;;;;;;5037913;28;19916;-76
2023/11/23 03:11:46;;;;;;;;;;;3.30;65.10;;;;;;5072044;28;20408;-76
2023/11/23 03:14:12;;;;;;;;;;;3.20;65.20;;;;;;5037899;28;19979;-75
2023/11/23 03:16:38;;;;;;;;;;;3.20;64.70;;;;;;5055573;28;19927;-73
2023/11/23 03:19:04;;;;;;;;;;;3.30;66.30;;;;;;5058568;28;19971;-72
2023/11/23 03:21:30;;;;;;;;;;;3.40;65.30;;;;;;5075520;28;20278;-72
2023/11/23 03:23:56;;;;;;;;;;;3.40;65.50;;;;;;5058183;28;20003;-75
2023/11/23 03:26:22;;;;;;;;;;;3.40;65.50;;;;;;5058146;28;19924;-75
2023/11/23 03:28:48;;;;;;;;;;;3.50;65.50;;;;;;5075829;28;19920;-72
2023/11/23 03:31:14;;;;;;;;;;;3.60;65.30;;;;;;5040743;28;19924;-72
2023/11/23 03:33:41;;;;;;;;;;;3.60;65.10;;;;;;5041108;28;19970;-75
2023/11/23 03:36:07;;;;;;;;;;;3.70;65.20;;;;;;5076328;28;19916;-76
2023/11/23 03:38:33;;;;;;;;;;;3.70;65.20;;;;;;5041213;28;20377;-72
2023/11/23 03:41:00;;;;;;;;;;;3.70;65.10;;;;;;5074919;28;19938;-76
2023/11/23 03:43:26;;;;;;;;;;;3.70;65.00;;;;;;5075727;28;20365;-75
2023/11/23 03:45:52;;;;;;;;;;;3.70;65.10;;;;;;5057930;28;20284;-75
2023/11/23 03:48:18;;;;;;;;;;;3.80;65.20;;;;;;5057643;28;19920;-72
2023/11/23 03:50:44;;;;;;;;;;;3.80;65.00;;;;;;5040556;28;20423;-75
2023/11/23 03:53:10;;;;;;;;;;;3.80;65.30;;;;;;5075554;28;19916;-72
2023/11/23 03:55:36;;;;;;;;;;;3.90;65.40;;;;;;5057313;28;19921;-71
2023/11/23 03:58:03;;;;;;;;;;;3.90;65.40;;;;;;5075334;28;19921;-72
2023/11/23 04:00:31;;;;;;;;;;;3.90;65.20;;;;;;5057189;28;20296;-72
2023/11/23 04:02:58;;;;;;;;;;;3.90;65.30;;;;;;5075264;28;20345;-72
2023/11/23 04:05:24;;;;;;;;;;;3.90;65.40;;;;;;5057360;28;19932;-75
2023/11/23 04:07:50;;;;;;;;;;;3.90;65.70;;;;;;5075199;28;19924;-75
2023/11/23 04:10:16;;;;;;;;;;;3.90;65.60;;;;;;5040046;28;19924;-72
2023/11/23 04:12:42;;;;;;;;;;;3.90;65.90;;;;;;5040513;28;19916;-75
2023/11/23 04:15:09;;;;;;;;;;;3.90;65.80;;;;;;5057064;28;19931;-76
2023/11/23 04:17:35;;;;;;;;;;;4.00;65.60;;;;;;5057237;28;19923;-72
2023/11/23 04:20:01;;;;;;;;;;;4.00;65.60;;;;;;5057180;28;20444;-76
2023/11/23 04:22:27;;;;;;;;;;;4.10;64.80;;;;;;5056654;28;19920;-72
2023/11/23 04:24:53;;;;;;;;;;;4.10;65.30;;;;;;5074832;28;19925;-72
2023/11/23 04:27:19;;;;;;;;;;;4.20;65.30;;;;;;5056731;28;19920;-75
2023/11/23 04:29:46;;;;;;;;;;;4.20;65.40;;;;;;5074061;28;19931;-75
2023/11/23 04:32:12;;;;;;;;;;;4.10;65.60;;;;;;5074275;28;19927;-71
2023/11/23 04:34:38;;;;;;;;;;;4.10;66.00;;;;;;5040422;28;20336;-76
2023/11/23 04:37:04;;;;;;;;;;;4.10;66.10;;;;;;5074821;28;20010;-72
2023/11/23 04:39:31;;;;;;;;;;;4.10;65.60;;;;;;5056776;28;20512;-75
2023/11/23 04:41:57;;;;;;;;;;;4.10;65.50;;;;;;5056347;28;20175;-72
2023/11/23 04:44:23;;;;;;;;;;;4.10;66.40;;;;;;5056774;28;20336;-75
2023/11/23 04:46:50;;;;;;;;;;;4.10;66.30;;;;;;5056722;28;19974;-72
2023/11/23 04:49:16;;;;;;;;;;;4.00;65.50;;;;;;5056532;28;20015;-72
2023/11/23 04:51:42;;;;;;;;;;;4.00;66.20;;;;;;5056020;28;20332;-76
2023/11/23 04:54:08;;;;;;;;;;;4.00;65.50;;;;;;5056301;28;19924;-72
2023/11/23 04:56:34;;;;;;;;;;;4.00;66.20;;;;;;5074315;28;19920;-72
2023/11/23 04:59:02;;;;;;;;;;;4.00;65.80;;;;;;5056209;28;20362;-75
2023/11/23 05:01:29;;;;;;;;;;;4.00;66.50;;;;;;5056289;28;19924;-72
2023/11/23 05:03:55;;;;;;;;;;;4.00;66.30;;;;;;5074202;28;19917;-73
2023/11/23 05:06:21;;;;;;;;;;;4.00;66.40;;;;;;5074476;28;19916;-75
2023/11/23 05:08:47;;;;;;;;;;;3.90;66.60;;;;;;5073841;28;20273;-75
2023/11/23 05:11:13;;;;;;;;;;;3.90;66.70;;;;;;5055678;28;20023;-72
2023/11/23 05:13:39;;;;;;;;;;;3.80;66.60;;;;;;5073892;28;19920;-76
2023/11/23 05:16:06;;;;;;;;;;;3.70;66.00;;;;;;5074359;28;19975;-72
2023/11/23 05:18:32;;;;;;;;;;;3.60;66.80;;;;;;5056041;28;20324;-72
2023/11/23 05:20:58;;;;;;;;;;;3.60;67.00;;;;;;5055648;28;20016;-73
2023/11/23 05:23:24;;;;;;;;;;;3.60;67.20;;;;;;5055818;28;19978;-72
2023/11/23 05:25:51;;;;;;;;;;;3.50;67.40;;;;;;5074099;28;20273;-72
2023/11/23 05:28:17;;;;;;;;;;;3.50;67.30;;;;;;5055805;28;19925;-72
2023/11/23 05:30:45;;;;;;;;;;;3.40;67.40;;;;;;5073077;28;19924;-75
2023/11/23 05:33:11;;;;;;;;;;;3.30;66.80;;;;;;5073596;28;20015;-76
2023/11/23 05:35:37;;;;;;;;;;;3.20;66.90;;;;;;5073352;28;19927;-72
2023/11/23 05:38:03;;;;;;;;;;;3.20;67.90;;;;;;5055580;28;19921;-76
2023/11/23 05:40:29;;;;;;;;;;;3.10;68.20;;;;;;5054732;28;19964;-71
2023/11/23 05:42:55;;;;;;;;;;;3.10;68.20;;;;;;5073314;28;19916;-73
2023/11/23 05:45:21;;;;;;;;;;;3.10;68.20;;;;;;5055748;28;19916;-76
2023/11/23 05:47:47;;;;;;;;;;;3.10;68.00;;;;;;5055406;28;20391;-71
2023/11/23 05:50:13;;;;;;;;;;;3.10;68.00;;;;;;5054557;28;20019;-72
2023/11/23 05:52:39;;;;;;;;;;;3.10;67.90;;;;;;5073159;28;19925;-76
2023/11/23 05:55:05;;;;;;;;;;;3.00;67.90;;;;;;5055492;28;19925;-71
2023/11/23 05:57:32;;;;;;;;;;;3.10;68.00;;;;;;5055159;28;20039;-72
2023/11/23 05:59:58;;;;;;;;;;;3.10;68.00;;;;;;5055283;28;20393;-73
2023/11/23 06:02:23;;;;;;;;;;;3.10;67.90;;;;;;5054799;28;19927;-76
2023/11/23 06:04:49;;;;;;;;;;;3.10;67.90;;;;;;5055336;28;19934;-71
2023/11/23 06:07:15;;;;;;;;;;;3.00;67.90;;;;;;5073170;28;20025;-72
2023/11/23 06:10:01;;;;;;;;;;;3.00;68.00;;;;;;5055066;28;19928;-75
2023/11/23 06:12:27;;;;;;;;;;;3.00;67.80;;;;;;5072266;28;20265;-72
2023/11/23 06:14:53;;;;;;;;;;;3.00;67.80;;;;;;5055076;28;20340;-72
2023/11/23 06:17:19;;;;;;;;;;;3.00;67.80;;;;;;5072947;28;20358;-72
2023/11/23 06:19:45;;;;;;;;;;;3.10;67.90;;;;;;5055028;28;20011;-76
2023/11/23 06:22:11;;;;;;;;;;;3.10;67.80;;;;;;5054594;28;19940;-72
2023/11/23 06:24:37;;;;;;;;;;;3.10;67.80;;;;;;5055167;28;19921;-76
2023/11/23 06:27:04;;;;;;;;;;;3.10;67.80;;;;;;5038266;28;20369;-72
2023/11/23 06:29:30;;;;;;;;;;;3.20;67.80;;;;;;5054687;28;19920;-72
2023/11/23 06:31:56;;;;;;;;;;;3.30;67.60;;;;;;5072211;28;19925;-76
2023/11/23 06:34:23;;;;;;;;;;;3.30;67.40;;;;;;5054817;28;19929;-75
2023/11/23 06:39:36;;;;;;;;;;;3.40;67.20;;;;;;5057461;28;19943;-71
2023/11/23 06:42:03;;;;;;;;;;;3.40;66.90;;;;;;5054285;28;20003;-76
2023/11/23 06:44:29;;;;;;;;;;;3.40;66.40;;;;;;5054535;28;20357;-72
2023/11/23 06:46:54;;;;;;;;;;;3.40;67.00;;;;;;5038176;28;19952;-75
2023/11/23 06:49:21;;;;;;;;;;;3.40;67.10;;;;;;5054632;28;20003;-72
2023/11/23 06:51:47;;;;;;;;;;;3.30;67.30;;;;;;5073257;28;19955;-72
2023/11/23 06:54:13;;;;;;;;;;;3.30;67.50;;;;;;5076274;28;19916;-75
2023/11/23 06:56:39;;;;;;;;;;;3.30;67.70;;;;;;5058711;28;19924;-72
2023/11/23 06:59:05;;;;;;;;;;;3.30;67.70;;;;;;5058967;28;19927;-72
2023/11/23 07:01:31;;;;;;;;;;;3.30;67.80;;;;;;5058078;28;19924;-76
2023/11/23 07:03:57;;;;;;;;;;;3.40;67.90;;;;;;5076439;28;19962;-72
2023/11/23 07:06:24;;;;;;;;;;;3.50;67.60;;;;;;5058652;28;19952;-76
2023/11/23 07:09:10;;;;;;;;;;;3.60;67.20;;;;;;5076077;28;20011;-76
2023/11/23 07:11:36;;;;;;;;;;;3.70;66.90;;;;;;5041145;28;20012;-72
2023/11/23 07:14:02;;;;;;;;;;;3.80;66.80;;;;;;5041509;28;20436;-71
2023/11/23 07:16:28;;;;;;;;;;;4.00;66.50;;;;;;5076059;28;19928;-72
2023/11/23 07:18:54;;;;;;;;;;;4.10;66.00;;;;;;5058096;28;19922;-72
2023/11/23 07:21:19;;;;;;;;;;;4.20;65.80;;;;;;5075506;28;20007;-76
2023/11/23 07:23:45;;;;;;;;;;;4.20;65.90;;;;;;5075956;28;20011;-76
2023/11/23 07:26:11;;;;;;;;;;;4.20;65.70;;;;;;5076483;28;20015;-76
2023/11/23 07:28:37;;;;;;;;;;;4.10;65.80;;;;;;5075858;28;20007;-75
2023/11/23 07:31:03;;;;;;;;;;;4.10;66.00;;;;;;5075456;28;19930;-72
2023/11/23 07:33:34;;;;;;;;;;;4.00;65.60;;;;;;5075633;28;19920;-76
2023/11/23 07:36:18;;;;;;;;;;;4.10;65.90;;;;;;5076144;28;19920;-75
2023/11/23 07:41:30;;;;;;;;;;;4.10;65.80;;;;;;5075036;28;19928;-72
2023/11/23 07:43:57;;;;;;;;;;;4.10;65.70;;;;;;5057643;28;20418;-76
2023/11/23 07:46:23;;;;;;;;;;;4.10;65.60;;;;;;5058118;28;19930;-76
2023/11/23 07:48:52;;;;;;;;;;;4.10;64.70;;;;;;5057515;28;19931;-72
2023/11/23 07:51:19;;;;;;;;;;;4.20;65.20;;;;;;5057606;28;19956;-72
2023/11/23 07:53:45;;;;;;;;;;;4.20;64.50;;;;;;5057661;28;19917;-72
2023/11/23 07:56:11;;;;;;;;;;;4.30;64.80;;;;;;5041230;28;19969;-71
2023/11/23 07:58:36;;;;;;;;;;;4.30;64.70;;;;;;5057292;28;20007;-76
2023/11/23 08:01:02;;;;;;;;;;;4.40;64.50;;;;;;5074604;28;19931;-72
2023/11/23 08:03:28;;;;;;;;;;;4.50;64.10;;;;;;5056189;28;19916;-72
2023/11/23 08:05:55;;;;;;;;;;;4.50;64.30;;;;;;5075692;28;20106;-76
2023/11/23 08:08:21;;;;;;;;;;;4.60;64.30;;;;;;5057406;28;19921;-72
2023/11/23 08:10:47;;;;;;;;;;;4.70;64.20;;;;;;5056772;28;19928;-75
2023/11/23 08:13:14;;;;;;;;;;;4.70;64.20;;;;;;5056917;28;19928;-76
2023/11/23 08:15:41;;;;;;;;;;;4.80;63.80;;;;;;5057657;28;19920;-72
2023/11/23 08:18:08;;;;;;;;;;;4.80;63.60;;;;;;5057177;28;19925;-76
2023/11/23 08:20:36;;;;;;;;;;;4.90;63.40;;;;;;5056463;28;19931;-75
2023/11/23 08:23:02;;;;;;;;;;;5.00;63.10;;;;;;5057390;28;19917;-76
2023/11/23 08:25:28;;;;;;;;;;;5.20;62.70;;;;;;5040345;28;19928;-73
2023/11/23 08:27:54;;;;;;;;;;;5.20;61.90;;;;;;5057042;28;19916;-75
2023/11/23 08:30:21;;;;;;;;;;;5.30;61.80;;;;;;5056096;28;20011;-72
2023/11/23 08:32:48;;;;;;;;;;;5.40;62.00;;;;;;5057096;28;19917;-72
2023/11/23 08:35:13;;;;;;;;;;;5.50;61.80;;;;;;5056852;28;19928;-76
2023/11/23 08:37:39;;;;;;;;;;;5.50;61.40;;;;;;5056882;28;19992;-72
2023/11/23 08:40:06;;;;;;;;;;;6.20;60.50;;;;;;5056165;28;19925;-75
2023/11/23 08:42:33;;;;;;;;;;;7.80;56.20;;;;;;5056483;28;20327;-72
2023/11/23 08:44:59;;;;;;;;;;;8.80;52.10;;;;;;5074719;28;19928;-72
2023/11/23 08:47:25;;;;;;;;;;;9.60;50.20;;;;;;5056569;28;19917;-76
2023/11/23 08:49:51;;;;;;;;;;;9.40;51.30;;;;;;5039887;28;19970;-72
2023/11/23 08:52:17;;;;;;;;;;;9.00;52.40;;;;;;5055761;28;19925;-72
2023/11/23 08:54:44;;;;;;;;;;;8.80;53.70;;;;;;5074088;28;20015;-75
2023/11/23 08:57:10;;;;;;;;;;;9.30;52.40;;;;;;5074215;28;19925;-72
2023/11/23 08:59:37;;;;;;;;;;;10.80;48.50;;;;;;5056144;28;20316;-76
2023/11/23 09:02:05;;;;;;;;;;;11.20;46.70;;;;;;5073833;28;19920;-76
2023/11/23 09:04:36;;;;;;;;;;;11.40;44.50;;;;;;5074085;28;20034;-72
2023/11/23 09:07:02;;;;;;;;;;;11.30;44.00;;;;;;5056985;28;19920;-72
2023/11/23 09:09:29;;;;;;;;;;;11.00;43.60;;;;;;5078590;28;20020;-72
2023/11/23 09:11:55;;;;;;;;;;;10.70;44.50;;;;;;5075347;28;19920;-76
2023/11/23 09:14:22;;;;;;;;;;;10.70;45.10;;;;;;5075861;28;19999;-75
2023/11/23 09:16:48;;;;;;;;;;;10.80;45.90;;;;;;5076253;28;19926;-75
2023/11/23 09:19:14;;;;;;;;;;;10.40;45.90;;;;;;5076023;28;20003;-72
2023/11/23 09:21:40;;;;;;;;;;;10.10;47.50;;;;;;5075554;28;19963;-75
2023/11/23 09:24:06;;;;;;;;;;;10.20;45.80;;;;;;5075723;28;19920;-72
2023/11/23 09:26:32;;;;;;;;;;;10.10;45.50;;;;;;5093894;28;19922;-75
2023/11/23 09:28:58;;;;;;;;;;;10.10;46.10;;;;;;5075706;28;19987;-72
2023/11/23 09:31:29;;;;;;;;;;;10.20;45.40;;;;;;5093161;28;19995;-72
2023/11/23 09:33:55;;;;;;;;;;;10.30;46.00;;;;;;5076381;28;19922;-73
2023/11/23 09:36:21;;;;;;;;;;;10.30;44.40;;;;;;5075359;28;19924;-72
2023/11/23 09:38:49;;;;;;;;;;;10.40;45.10;;;;;;5093525;28;20003;-72
2023/11/23 09:41:19;;;;;;;;;;;10.40;44.30;;;;;;5074887;28;20015;-76
2023/11/23 09:44:03;;;;;;;;;;;10.50;43.40;;;;;;5076111;28;19977;-76
2023/11/23 09:46:30;;;;;;;;;;;10.90;42.70;;;;;;5075432;28;20002;-72
2023/11/23 09:48:56;;;;;;;;;;;11.00;42.40;;;;;;5075293;28;19962;-72
2023/11/23 09:51:22;;;;;;;;;;;11.20;41.70;;;;;;5058212;28;20369;-72
2023/11/23 09:53:50;;;;;;;;;;;11.70;41.10;;;;;;5058598;28;19952;-72
2023/11/23 09:56:16;;;;;;;;;;;12.40;39.80;;;;;;5075663;28;20305;-75
2023/11/23 09:58:42;;;;;;;;;;;12.50;39.50;;;;;;5058690;28;19920;-75
2023/11/23 10:01:09;;;;;;;;;;;13.00;39.10;;;;;;5074466;28;19924;-74
2023/11/23 10:03:35;;;;;;;;;;;12.80;38.30;;;;;;5058365;28;20429;-72
2023/11/23 10:06:01;;;;;;;;;;;12.50;37.00;;;;;;5093616;28;20382;-75
2023/11/23 10:08:27;;;;;;;;;;;12.20;38.40;;;;;;5093259;28;19974;-72
2023/11/23 10:10:53;;;;;;;;;;;12.30;38.80;;;;;;5092694;28;19924;-72
2023/11/23 10:13:19;;;;;;;;;;;12.40;38.90;;;;;;5074921;28;19927;-76
2023/11/23 10:15:47;;;;;;;;;;;12.60;39.30;;;;;;5093449;28;20431;-76
2023/11/23 10:18:13;;;;;;;;;;;12.60;38.90;;;;;;5075167;28;19931;-72
2023/11/23 10:20:46;;;;;;;;;;;12.90;39.20;;;;;;5074504;28;19932;-75
2023/11/23 10:23:13;;;;;;;;;;;13.30;38.70;;;;;;5075320;28;20380;-72
2023/11/23 10:25:41;;;;;;;;;;;14.10;36.80;;;;;;5074906;28;19942;-72
2023/11/23 10:28:07;;;;;;;;;;;14.90;34.00;;;;;;5057947;28;19931;-75
2023/11/23 10:30:39;;;;;;;;;;;15.10;34.30;;;;;;5074435;28;19928;-72
2023/11/23 10:33:05;;;;;;;;;;;14.80;34.90;;;;;;5074899;28;19916;-72
2023/11/23 10:35:38;;;;;;;;;;;14.50;34.10;;;;;;5093362;28;19955;-75
2023/11/23 10:38:05;;;;;;;;;;;14.30;34.40;;;;;;5073874;28;20397;-75
2023/11/23 10:40:32;;;;;;;;;;;14.30;35.10;;;;;;5074151;28;20017;-73
2023/11/23 10:43:01;;;;;;;;;;;14.30;33.30;;;;;;5057822;28;19998;-75
2023/11/23 10:45:27;;;;;;;;;;;14.50;33.30;;;;;;5074933;28;19928;-76
2023/11/23 10:47:54;;;;;;;;;;;14.80;33.80;;;;;;5074654;28;19923;-73
2023/11/23 10:50:20;;;;;;;;;;;15.00;32.20;;;;;;5057266;28;20436;-73
2023/11/23 10:52:48;;;;;;;;;;;15.30;31.90;;;;;;5074502;28;19916;-75
2023/11/23 10:55:14;;;;;;;;;;;15.50;32.10;;;;;;5074717;28;20173;-75
2023/11/23 10:58:17;;;;;;;;;;;15.40;30.20;;;;;;5074698;28;19931;-72
2023/11/23 11:00:44;;;;;;;;;;;15.10;32.20;;;;;;5092257;28;19930;-73
2023/11/23 11:03:11;;;;;;;;;;;15.50;31.80;;;;;;5074663;28;19916;-75
2023/11/23 11:05:45;;;;;;;;;;;15.60;31.00;;;;;;5074586;28;20296;-73
2023/11/23 11:08:16;;;;;;;;;;;16.20;30.30;;;;;;5075700;28;19920;-74
2023/11/23 11:11:01;;;;;;;;;;;16.60;29.90;;;;;;5092109;28;20328;-72
2023/11/23 11:13:27;;;;;;;;;;;16.40;29.30;;;;;;5074415;28;20335;-75
2023/11/23 11:16:12;;;;;;;;;;;16.30;30.40;;;;;;5074579;28;19928;-73
2023/11/23 11:21:23;;;;;;;;;;;16.80;29.20;;;;;;5076689;28;20019;-72
2023/11/23 11:23:52;;;;;;;;;;;17.30;28.30;;;;;;5074661;28;20369;-73
2023/11/23 11:26:37;;;;;;;;;;;16.40;29.50;;;;;;5057920;28;19926;-72
2023/11/23 11:29:06;;;;;;;;;;;16.60;29.70;;;;;;5074143;28;19924;-72
2023/11/23 11:31:33;;;;;;;;;;;16.60;29.30;;;;;;5091827;28;19920;-76
2023/11/23 11:34:19;;;;;;;;;;;17.80;27.80;;;;;;5074360;28;19920;-72
2023/11/23 11:37:09;;;;;;;;;;;18.40;27.20;;;;;;5092420;28;19924;-75
2023/11/23 11:39:37;;;;;;;;;;;17.20;28.10;;;;;;5096209;28;19931;-72
2023/11/23 11:42:04;;;;;;;;;;;16.50;28.90;;;;;;5077368;28;19930;-73
2023/11/23 11:44:33;;;;;;;;;;;16.50;29.70;;;;;;5078155;28;19920;-75
2023/11/23 11:47:00;;;;;;;;;;;17.10;29.60;;;;;;5078280;28;19920;-73
2023/11/23 11:49:27;;;;;;;;;;;17.90;28.10;;;;;;5077646;28;19973;-72
2023/11/23 11:51:53;;;;;;;;;;;17.30;28.30;;;;;;5060439;28;19986;-70
2023/11/23 11:54:20;;;;;;;;;;;17.00;27.90;;;;;;5060763;28;19923;-73
2023/11/23 11:56:47;;;;;;;;;;;16.60;28.80;;;;;;5095743;28;19923;-75
2023/11/23 11:59:15;;;;;;;;;;;17.00;28.50;;;;;;5060795;28;20278;-72
2023/11/23 12:01:43;;;;;;;;;;;16.40;29.30;;;;;;5059912;28;19955;-72
2023/11/23 12:04:31;;;;;;;;;;;15.90;30.10;;;;;;5077331;28;19916;-75
2023/11/23 12:06:57;;;;;;;;;;;15.40;30.50;;;;;;5095641;28;20023;-75
2023/11/23 12:09:23;;;;;;;;;;;14.90;31.70;;;;;;5077033;28;20440;-72
2023/11/23 12:11:51;;;;;;;;;;;14.60;32.70;;;;;;5076510;28;20395;-76
2023/11/23 12:14:18;;;;;;;;;;;14.40;32.10;;;;;;5077641;28;19916;-72
2023/11/23 12:16:45;;;;;;;;;;;14.60;31.40;;;;;;5077214;28;20011;-73
2023/11/23 12:19:30;;;;;;;;;;;14.70;31.90;;;;;;5077047;28;20369;-72
2023/11/23 12:21:58;;;;;;;;;;;14.20;31.70;;;;;;5076498;28;19978;-74
2023/11/23 12:27:10;;;;;;;;;;;14.00;33.40;;;;;;5079941;28;20012;-75
2023/11/23 12:29:38;;;;;;;;;;;13.90;33.90;;;;;;5076784;28;19924;-72
2023/11/23 12:32:05;;;;;;;;;;;13.80;33.20;;;;;;5094892;28;19920;-73
2023/11/23 12:34:33;;;;;;;;;;;13.80;33.80;;;;;;5095245;28;20323;-76
2023/11/23 12:37:00;;;;;;;;;;;14.40;34.10;;;;;;5060424;28;19951;-73
2023/11/23 12:39:28;;;;;;;;;;;14.60;32.30;;;;;;5076850;28;19924;-75
2023/11/23 12:41:54;;;;;;;;;;;14.30;33.10;;;;;;5075915;28;20300;-75
2023/11/23 12:44:20;;;;;;;;;;;13.80;34.20;;;;;;5094895;28;19974;-72
2023/11/23 12:46:46;;;;;;;;;;;13.90;33.40;;;;;;5076748;28;19922;-76
2023/11/23 12:49:14;;;;;;;;;;;14.20;33.30;;;;;;5076193;28;19924;-72
2023/11/23 12:51:41;;;;;;;;;;;14.70;32.80;;;;;;5075964;28;19974;-76
2023/11/23 12:54:07;;;;;;;;;;;14.40;33.10;;;;;;5094046;28;20384;-73
2023/11/23 12:56:35;;;;;;;;;;;15.00;32.90;;;;;;5094539;28;19916;-75
2023/11/23 12:59:01;;;;;;;;;;;15.70;31.30;;;;;;5076478;28;19916;-75
2023/11/23 13:01:27;;;;;;;;;;;15.60;31.00;;;;;;5093585;28;19931;-76
2023/11/23 13:03:53;;;;;;;;;;;15.30;32.40;;;;;;5076191;28;19916;-73
2023/11/23 13:06:21;;;;;;;;;;;15.30;31.20;;;;;;5059348;28;20373;-72
2023/11/23 13:08:48;;;;;;;;;;;15.80;31.60;;;;;;5076181;28;19942;-75
2023/11/23 13:11:14;;;;;;;;;;;16.80;30.60;;;;;;5075662;28;20323;-76
2023/11/23 13:13:42;;;;;;;;;;;17.50;29.10;;;;;;5075635;28;19947;-75
2023/11/23 13:16:08;;;;;;;;;;;17.40;28.80;;;;;;5094549;28;19916;-76
2023/11/23 13:21:19;;;;;;;;;;;16.60;30.00;;;;;;5093610;28;19970;-75
2023/11/23 13:23:48;;;;;;;;;;;16.20;30.20;;;;;;5075886;28;19920;-75
2023/11/23 13:26:14;;;;;;;;;;;16.50;30.10;;;;;;5094455;28;19927;-74
2023/11/23 13:28:41;;;;;;;;;;;17.40;28.90;;;;;;5059105;28;20332;-72
2023/11/23 13:31:07;;;;;;;;;;;18.70;27.00;;;;;;5075272;28;19933;-72
2023/11/23 13:33:34;;;;;;;;;;;19.30;26.40;;;;;;5075582;28;20002;-76
2023/11/23 13:36:03;;;;;;;;;;;19.70;25.80;;;;;;5059469;28;20333;-72
2023/11/23 13:38:31;;;;;;;;;;;18.90;25.90;;;;;;5059141;28;20282;-75
2023/11/23 13:40:59;;;;;;;;;;;18.80;25.60;;;;;;5093362;28;19924;-72
2023/11/23 13:43:25;;;;;;;;;;;19.10;25.70;;;;;;5075462;28;20324;-72
2023/11/23 13:45:51;;;;;;;;;;;18.20;26.00;;;;;;5094039;28;19920;-73
2023/11/23 13:48:17;;;;;;;;;;;17.70;27.70;;;;;;5093621;28;19920;-73
2023/11/23 13:50:43;;;;;;;;;;;16.90;28.80;;;;;;5074653;28;19924;-73
2023/11/23 13:53:11;;;;;;;;;;;16.20;30.00;;;;;;5093368;28;19916;-72
2023/11/23 13:55:37;;;;;;;;;;;16.00;30.40;;;;;;5093222;28;20326;-73
2023/11/23 13:58:04;;;;;;;;;;;15.70;30.50;;;;;;5058601;28;20425;-75
2023/11/23 14:00:30;;;;;;;;;;;14.90;31.20;;;;;;5074467;28;19924;-72
2023/11/23 14:02:56;;;;;;;;;;;14.50;32.50;;;;;;5074776;28;19952;-75
2023/11/23 14:05:22;;;;;;;;;;;14.10;33.60;;;;;;5093511;28;20022;-75
2023/11/23 14:07:49;;;;;;;;;;;13.70;34.10;;;;;;5075206;28;19927;-72
2023/11/23 14:10:15;;;;;;;;;;;13.30;34.70;;;;;;5058047;28;19920;-75
2023/11/23 14:12:41;;;;;;;;;;;13.10;36.10;;;;;;5074936;28;20030;-73
2023/11/23 14:15:15;;;;;;;;;;;12.90;36.40;;;;;;5092055;28;20398;-72
2023/11/23 14:17:41;;;;;;;;;;;12.50;36.70;;;;;;5072566;28;19952;-74
2023/11/23 14:20:08;;;;;;;;;;;12.40;37.40;;;;;;5072517;28;19931;-75
2023/11/23 14:22:35;;;;;;;;;;;12.10;37.80;;;;;;5038408;28;19924;-72
2023/11/23 14:25:03;;;;;;;;;;;11.90;37.90;;;;;;5055086;28;20323;-75
2023/11/23 14:27:29;;;;;;;;;;;11.80;38.50;;;;;;5055042;28;19916;-72
2023/11/23 14:29:55;;;;;;;;;;;11.60;38.70;;;;;;5054995;28;19924;-72
2023/11/23 14:32:22;;;;;;;;;;;11.50;39.00;;;;;;5072532;28;19928;-75
2023/11/23 14:34:47;;;;;;;;;;;11.40;39.70;;;;;;5055150;28;19931;-72
2023/11/23 14:37:14;;;;;;;;;;;11.40;39.80;;;;;;5072617;28;19916;-72
2023/11/23 14:39:42;;;;;;;;;;;11.40;39.40;;;;;;5072900;28;19975;-75
2023/11/23 14:42:09;;;;;;;;;;;11.40;39.90;;;;;;5053874;28;19920;-72